Flight Track Log - Related Links

Times and Time Zones

All times are in EDT time to prevent confusion due to time zone crossing. See the CJC5009 flight status page for this flight to view local times or setup timezone preferences in your user account.

Time Position Orientation Groundspeed Altitude Reporting Facility
EDT Latitude Longitude Course Direction KTS MPH feet Rate Location/Type
Thu 11:12:46 PM 29.9644 -95.3483 45° Northeast 130 150 800  Level Houston Center
Thu 11:14:11 PM 30.0053 -95.3017 16° North 223 257 2,400 904 Climbing Houston Center
Thu 11:15:12 PM 30.0642 -95.2822 36° Northeast 226 260 3,000 783 Climbing Houston Center
Thu 11:16:06 PM 30.1133 -95.2408 66° East 242 278 3,900 1,043 Climbing Houston Center
Thu 11:17:07 PM 30.1358 -95.1817 78° East 191 220 5,000 541 Climbing Houston Center
Thu 11:18:08 PM 30.1478 -95.1147 77° East 217 250 5,000  Level Houston Center
Thu 11:19:09 PM 30.1644 -95.0336 86° East 246 283 5,000  Level Houston Center
Thu 11:20:03 PM 30.1683 -94.9689 87° East 252 290 5,000  Level Houston Center
Thu 11:21:10 PM 30.1725 -94.8778 87° East 250 288 5,000  Level Houston Center
Thu 11:22:17 PM 30.1767 -94.7892 93° East 254 292 5,000  Level Houston Center
Thu 11:23:18 PM 30.1722 -94.7025 97° East 249 287 5,000  Level Houston Center
Thu 11:24:19 PM 30.1636 -94.6206 87° East 259 298 5,000 -246 Level Houston Center
Thu 11:25:20 PM 30.1675 -94.5389 85° East 261 300 4,500 -522 Descending Houston Center
Thu 11:26:14 PM 30.1733 -94.4622 115° Southeast 263 303 4,000 -522 Descending Houston Center
Thu 11:27:15 PM 30.1436 -94.3894 124° Southeast 245 282 3,500 -541 Descending Houston Center
Thu 11:28:16 PM 30.1053 -94.3236 123° Southeast 248 285 2,900 -541 Descending Houston Center
Thu 11:29:17 PM 30.0728 -94.2650 119° Southeast 207 238 2,400 -446 Descending Houston Center
Thu 11:30:17 PM 30.0447 -94.2069 119° Southeast 209 241 2,000 -209 Descending Houston Center
Thu 11:31:12 PM 30.0186 -94.1533 122° Southeast 209 241 2,000 -259 Level Houston Center
Thu 11:32:13 PM 29.9925 -94.1047 125° Southeast 162 186 1,500 -645 Descending Houston Center
Thu 11:33:13 PM 29.9722 -94.0708 119° Southeast 129 148 700 -694 Descending Houston Center
Thu 11:34:14 PM 29.9539 -94.0319 119° Southeast 114 131 100 -590 Descending Houston Center

Login

Don't have an account? Register now (free) for customized features, flight alerts, and more!